Time;durP1;ratioP1;P1;durP2;ratioP2;P2;SDS_P1;SDS_P2;PMS_P1;PMS_P2;Temp;Humidity;BMP_temperature;BMP_pressure;BME280_temperature;BME280_humidity;BME280_pressure;Samples;Min_cycle;Max_cycle;Signal;HPM_P1;HPM_P2
2022/10/16 00:00:41;;;;;;;7.32;3.17;;;15.90;99.90;;;;;;4971818;28;20055;-75
2022/10/16 00:03:09;;;;;;;10.93;2.90;;;15.90;99.90;;;;;;4972081;28;20047;-75
2022/10/16 00:05:40;;;;;;;7.72;2.90;;;15.90;99.90;;;;;;4970927;28;20054;-75
2022/10/16 00:08:07;;;;;;;5.85;3.40;;;15.90;99.90;;;;;;4969615;28;20047;-75
2022/10/16 00:10:36;;;;;;;12.65;2.70;;;15.90;99.90;;;;;;4971936;28;20046;-75
2022/10/16 00:13:04;;;;;;;6.07;2.78;;;15.90;99.90;;;;;;4963479;28;20047;-75
2022/10/16 00:15:30;;;;;;;7.47;3.17;;;15.80;99.90;;;;;;4971690;28;20047;-75
2022/10/16 00:17:57;;;;;;;7.60;3.20;;;15.80;99.90;;;;;;4963976;28;20039;-75
2022/10/16 00:20:24;;;;;;;6.60;2.67;;;15.80;99.90;;;;;;4972474;28;20419;-75
2022/10/16 00:22:51;;;;;;;9.85;2.88;;;15.80;99.90;;;;;;4975703;28;20041;-75
2022/10/16 00:25:18;;;;;;;4.72;2.40;;;15.80;99.90;;;;;;4970773;28;20047;-75
2022/10/16 00:27:46;;;;;;;5.72;2.50;;;15.80;99.90;;;;;;4991843;23;20040;-79
2022/10/16 00:30:13;;;;;;;10.30;2.65;;;15.80;99.90;;;;;;5009100;28;20053;-79
2022/10/16 00:32:40;;;;;;;8.75;2.80;;;15.80;99.90;;;;;;5008950;28;20046;-79
2022/10/16 00:35:07;;;;;;;9.65;2.75;;;15.80;99.90;;;;;;5002705;28;20116;-79
2022/10/16 00:37:34;;;;;;;9.73;2.70;;;15.80;99.90;;;;;;5010343;28;20129;-79
2022/10/16 00:40:01;;;;;;;5.35;2.50;;;15.80;99.90;;;;;;4998998;28;20039;-79
2022/10/16 00:42:28;;;;;;;10.50;2.90;;;15.80;99.90;;;;;;4989608;28;20043;-79
2022/10/16 00:44:58;;;;;;;7.95;2.72;;;15.80;99.90;;;;;;4990377;28;20046;-79
2022/10/16 00:47:29;;;;;;;6.85;2.40;;;15.80;99.90;;;;;;4989040;28;20052;-79
2022/10/16 00:50:00;;;;;;;6.72;2.30;;;15.80;99.90;;;;;;4987390;28;20432;-79
2022/10/16 00:52:28;;;;;;;6.57;2.20;;;15.70;99.90;;;;;;4973587;28;20128;-79
2022/10/16 00:54:55;;;;;;;7.55;2.60;;;15.70;99.90;;;;;;4998788;28;20129;-79
2022/10/16 00:57:22;;;;;;;8.27;2.28;;;15.70;99.90;;;;;;4989472;28;20046;-79
2022/10/16 00:59:49;;;;;;;4.22;2.05;;;15.80;99.90;;;;;;4991142;28;20050;-79
2022/10/16 01:02:18;;;;;;;5.15;2.28;;;15.80;99.90;;;;;;4972610;28;20042;-79
2022/10/16 01:04:47;;;;;;;9.25;2.58;;;15.70;99.90;;;;;;4971349;28;20050;-79
2022/10/16 01:07:23;;;;;;;4.72;2.05;;;15.80;99.90;;;;;;4987641;28;20065;-79
2022/10/16 01:09:58;;;;;;;6.07;2.22;;;15.70;99.90;;;;;;4990616;28;20719;-79
2022/10/16 01:12:35;;;;;;;6.05;2.28;;;15.70;99.90;;;;;;4997040;28;20050;-79
2022/10/16 01:15:08;;;;;;;8.38;2.40;;;15.70;99.90;;;;;;5007616;28;20046;-79
2022/10/16 01:17:42;;;;;;;7.00;2.20;;;15.70;99.90;;;;;;4975751;28;20573;-79
2022/10/16 01:20:14;;;;;;;6.57;2.05;;;15.70;99.90;;;;;;4984189;28;20117;-79
2022/10/16 01:22:58;;;;;;;8.15;2.40;;;15.70;99.90;;;;;;4985621;28;20086;-79
2022/10/16 01:25:31;;;;;;;4.75;2.10;;;15.70;99.90;;;;;;4987510;28;20125;-79
2022/10/16 01:28:01;;;;;;;6.15;2.10;;;15.70;99.90;;;;;;4986214;28;20129;-79
2022/10/16 01:30:32;;;;;;;7.25;2.80;;;15.70;99.90;;;;;;4997809;28;20044;-79
2022/10/16 01:33:03;;;;;;;6.90;2.40;;;15.70;99.90;;;;;;4990687;28;20054;-79
2022/10/16 01:35:33;;;;;;;6.03;2.40;;;15.70;99.90;;;;;;4987659;28;20056;-79
2022/10/16 01:38:03;;;;;;;5.30;2.10;;;15.70;99.90;;;;;;4977984;28;20046;-79
2022/10/16 01:40:32;;;;;;;5.65;2.33;;;15.70;99.90;;;;;;4989496;28;20046;-79
2022/10/16 01:43:02;;;;;;;6.72;2.40;;;15.70;99.90;;;;;;4987668;28;20083;-79
2022/10/16 01:45:29;;;;;;;5.53;2.20;;;15.60;99.90;;;;;;4995248;28;20089;-79
2022/10/16 01:47:57;;;;;;;7.43;2.35;;;15.80;99.90;;;;;;4976364;28;20047;-79
2022/10/16 01:50:25;;;;;;;6.63;2.25;;;15.70;99.90;;;;;;4989848;28;20045;-79
2022/10/16 01:52:53;;;;;;;6.57;1.98;;;15.70;99.90;;;;;;4989349;28;20057;-79
2022/10/16 01:55:26;;;;;;;6.47;2.13;;;15.60;99.90;;;;;;4988597;28;20045;-79
2022/10/16 01:57:53;;;;;;;6.25;2.53;;;15.60;99.90;;;;;;4989138;28;20061;-79
2022/10/16 02:00:22;;;;;;;7.40;2.35;;;15.60;99.90;;;;;;4996631;28;20057;-79
2022/10/16 02:02:52;;;;;;;6.93;2.20;;;15.60;99.90;;;;;;5004882;28;20597;-79
2022/10/16 02:05:22;;;;;;;5.72;2.40;;;15.60;99.90;;;;;;5003299;28;20042;-79
2022/10/16 02:07:49;;;;;;;4.80;2.28;;;15.70;99.90;;;;;;4989147;28;20057;-79
2022/10/16 02:10:17;;;;;;;5.10;2.30;;;15.70;99.90;;;;;;4989641;28;20412;-79
2022/10/16 02:12:47;;;;;;;5.40;2.50;;;15.70;99.90;;;;;;4989119;28;20053;-79
2022/10/16 02:15:14;;;;;;;5.55;2.15;;;15.70;99.90;;;;;;4982781;28;20049;-79
2022/10/16 02:17:43;;;;;;;7.82;1.92;;;15.70;99.90;;;;;;4979865;28;20056;-79
2022/10/16 02:20:10;;;;;;;6.20;2.33;;;15.70;99.90;;;;;;5000918;28;20049;-79
2022/10/16 02:22:41;;;;;;;16.23;2.72;;;15.70;99.90;;;;;;4989140;28;20057;-79
2022/10/16 02:25:11;;;;;;;4.35;1.83;;;15.70;99.90;;;;;;4984835;28;20047;-79
2022/10/16 02:27:42;;;;;;;5.50;2.40;;;15.70;99.90;;;;;;4989386;28;20042;-79
2022/10/16 02:30:14;;;;;;;6.53;2.47;;;15.70;99.90;;;;;;4988846;28;20038;-79
2022/10/16 02:32:45;;;;;;;4.43;2.10;;;15.60;99.90;;;;;;4996141;28;20042;-81
2022/10/16 02:35:12;;;;;;;5.85;1.90;;;15.60;99.90;;;;;;4991608;28;20050;-78
2022/10/16 02:37:39;;;;;;;4.57;2.40;;;15.60;99.90;;;;;;4989429;28;20050;-79
2022/10/16 02:40:08;;;;;;;5.05;2.20;;;15.60;99.90;;;;;;4988542;28;20034;-79
2022/10/16 02:42:36;;;;;;;4.43;2.20;;;15.60;99.90;;;;;;4989627;28;20046;-79
2022/10/16 02:45:03;;;;;;;4.82;2.22;;;15.60;99.90;;;;;;4986500;28;20046;-79
2022/10/16 02:47:30;;;;;;;8.27;2.10;;;15.60;99.90;;;;;;4987658;28;20052;-79
2022/10/16 02:49:58;;;;;;;7.10;2.30;;;15.60;99.90;;;;;;4992931;28;20077;-79
2022/10/16 02:52:25;;;;;;;7.43;2.35;;;15.60;99.90;;;;;;5008957;28;20057;-79
2022/10/16 02:54:52;;;;;;;4.68;2.65;;;15.60;99.90;;;;;;5001711;28;20593;-78
2022/10/16 02:57:19;;;;;;;6.70;2.13;;;15.60;99.90;;;;;;4982392;28;20074;-79
2022/10/16 02:59:46;;;;;;;5.05;2.40;;;15.60;99.90;;;;;;4986096;28;20043;-78
2022/10/16 03:02:13;;;;;;;4.68;2.00;;;15.60;99.90;;;;;;4996558;28;20118;-78
2022/10/16 03:04:40;;;;;;;4.57;2.10;;;15.60;99.90;;;;;;4984838;28;20046;-78
2022/10/16 03:07:08;;;;;;;5.43;2.42;;;15.60;99.90;;;;;;4982902;28;20054;-79
2022/10/16 03:09:35;;;;;;;5.43;1.80;;;15.60;99.90;;;;;;4965057;28;20049;-79
2022/10/16 03:12:02;;;;;;;6.18;2.00;;;15.60;99.90;;;;;;4978845;28;20065;-79
2022/10/16 03:14:31;;;;;;;5.00;2.17;;;15.70;99.90;;;;;;4979738;28;20051;-79
2022/10/16 03:16:58;;;;;;;3.70;2.10;;;15.70;99.90;;;;;;4969813;28;20098;-79
2022/10/16 03:19:25;;;;;;;5.20;2.10;;;15.70;99.90;;;;;;4970089;28;20130;-79
2022/10/16 03:21:52;;;;;;;3.75;1.80;;;15.70;99.90;;;;;;4964221;28;20059;-79
2022/10/16 03:24:20;;;;;;;6.60;2.10;;;15.70;99.90;;;;;;4976325;28;20050;-79
2022/10/16 03:26:47;;;;;;;5.60;2.00;;;15.70;99.90;;;;;;4984418;28;20514;-78
2022/10/16 03:29:14;;;;;;;3.80;2.03;;;15.70;99.90;;;;;;4985344;28;20053;-79
2022/10/16 03:31:41;;;;;;;5.75;1.90;;;15.70;99.90;;;;;;4974004;28;20050;-79
2022/10/16 03:34:08;;;;;;;3.83;1.90;;;15.70;99.90;;;;;;4985277;28;20045;-79
2022/10/16 03:36:35;;;;;;;4.00;1.80;;;15.70;99.90;;;;;;4974484;28;20129;-79
2022/10/16 03:39:02;;;;;;;6.65;1.80;;;15.70;99.90;;;;;;4983653;28;20474;-79
2022/10/16 03:41:30;;;;;;;5.57;2.00;;;15.70;99.90;;;;;;4981722;28;20729;-79
2022/10/16 03:43:57;;;;;;;3.28;1.67;;;15.70;99.90;;;;;;4985987;28;20057;-79
2022/10/16 03:46:24;;;;;;;4.38;1.92;;;15.70;99.90;;;;;;4988335;28;20053;-79
2022/10/16 03:48:51;;;;;;;8.90;2.25;;;15.70;99.90;;;;;;4972450;28;20803;-79
2022/10/16 03:51:18;;;;;;;4.43;1.80;;;15.60;99.90;;;;;;4989244;28;20406;-79
2022/10/16 03:53:44;;;;;;;4.43;2.17;;;15.60;99.90;;;;;;4989260;28;20038;-79
2022/10/16 03:56:11;;;;;;;5.68;2.10;;;15.60;99.90;;;;;;4989670;28;20053;-79
2022/10/16 03:58:40;;;;;;;5.03;1.80;;;15.60;99.90;;;;;;4992264;28;20057;-79
2022/10/16 04:01:07;;;;;;;4.25;1.90;;;15.60;99.90;;;;;;4988829;28;20575;-79
2022/10/16 04:03:33;;;;;;;3.72;1.90;;;15.60;99.90;;;;;;4984410;28;20070;-79
2022/10/16 04:06:00;;;;;;;5.28;1.88;;;15.60;99.90;;;;;;4991591;28;20407;-79
2022/10/16 04:08:27;;;;;;;4.97;1.90;;;15.60;99.90;;;;;;4987245;28;20403;-79
2022/10/16 04:10:54;;;;;;;5.78;1.98;;;15.60;99.90;;;;;;4999852;28;20030;-79
2022/10/16 04:13:21;;;;;;;3.85;2.00;;;15.60;99.90;;;;;;4989074;28;20046;-79
2022/10/16 04:15:49;;;;;;;3.75;1.85;;;15.50;99.90;;;;;;4991460;28;20471;-79
2022/10/16 04:18:16;;;;;;;4.65;1.63;;;15.50;99.90;;;;;;4991050;28;20046;-79
2022/10/16 04:20:43;;;;;;;3.58;2.08;;;15.50;99.90;;;;;;4971651;28;20061;-79
2022/10/16 04:23:10;;;;;;;6.05;1.90;;;15.50;99.90;;;;;;4987560;28;20042;-79
2022/10/16 04:25:37;;;;;;;7.50;2.05;;;15.50;99.90;;;;;;4991454;28;20050;-79
2022/10/16 04:28:04;;;;;;;6.97;2.03;;;15.50;99.90;;;;;;4990893;28;20047;-79
2022/10/16 04:30:31;;;;;;;7.68;2.20;;;15.50;99.90;;;;;;4991049;28;20042;-79
2022/10/16 04:32:59;;;;;;;6.63;2.08;;;15.40;99.90;;;;;;4988173;28;20050;-79
2022/10/16 04:35:26;;;;;;;7.55;2.10;;;15.40;99.90;;;;;;4978705;28;20046;-79
2022/10/16 04:37:52;;;;;;;3.20;1.88;;;15.40;99.90;;;;;;4983810;28;20505;-79
2022/10/16 04:40:19;;;;;;;6.10;1.85;;;15.40;99.90;;;;;;4991158;28;20414;-79
2022/10/16 04:42:46;;;;;;;6.45;1.98;;;15.40;99.90;;;;;;4985826;28;20503;-79
2022/10/16 04:45:13;;;;;;;3.88;1.75;;;15.40;99.90;;;;;;4989645;28;20054;-79
2022/10/16 04:47:40;;;;;;;4.93;2.22;;;15.40;99.90;;;;;;4987109;28;20042;-79
2022/10/16 04:50:09;;;;;;;7.93;2.38;;;15.40;99.90;;;;;;4982026;28;20523;-79
2022/10/16 04:52:36;;;;;;;7.03;1.98;;;15.40;99.90;;;;;;4987992;28;20042;-79
2022/10/16 04:55:03;;;;;;;5.65;2.10;;;15.40;99.90;;;;;;4981909;28;20423;-79
2022/10/16 04:57:30;;;;;;;4.40;2.08;;;15.40;99.90;;;;;;4984183;28;20051;-79
2022/10/16 04:59:57;;;;;;;4.18;1.95;;;15.40;99.90;;;;;;4984754;28;20114;-79
2022/10/16 05:02:24;;;;;;;6.07;2.30;;;15.40;99.90;;;;;;4994338;28;20134;-79
2022/10/16 05:04:50;;;;;;;5.88;2.20;;;15.40;99.90;;;;;;4988912;28;20038;-79
2022/10/16 05:07:19;;;;;;;5.97;1.90;;;15.30;99.90;;;;;;4990219;28;20038;-79
2022/10/16 05:09:46;;;;;;;3.95;1.90;;;15.30;99.90;;;;;;4990482;28;20511;-79
2022/10/16 05:12:12;;;;;;;5.20;1.60;;;15.30;99.90;;;;;;4986634;28;20046;-79
2022/10/16 05:14:39;;;;;;;5.50;2.10;;;15.30;99.90;;;;;;4987873;28;20053;-79
2022/10/16 05:17:06;;;;;;;3.97;1.80;;;15.40;99.90;;;;;;4989324;28;20046;-79
2022/10/16 05:19:33;;;;;;;5.47;1.90;;;15.30;99.90;;;;;;4990510;28;20054;-79
2022/10/16 05:22:00;;;;;;;5.95;2.08;;;15.30;99.90;;;;;;4989971;28;20053;-79
2022/10/16 05:24:29;;;;;;;6.43;2.58;;;15.30;99.90;;;;;;4983356;28;20092;-79
2022/10/16 05:26:56;;;;;;;3.20;1.63;;;15.30;99.90;;;;;;4975454;28;20046;-79
2022/10/16 05:29:23;;;;;;;5.35;2.35;;;15.30;99.90;;;;;;4990260;28;20802;-79
2022/10/16 05:31:52;;;;;;;5.35;1.77;;;15.30;99.90;;;;;;4996003;28;20053;-79
2022/10/16 05:34:19;;;;;;;6.47;1.92;;;15.30;99.90;;;;;;4987487;28;20084;-79
2022/10/16 05:36:46;;;;;;;6.80;2.20;;;15.30;99.90;;;;;;4988033;28;20499;-79
2022/10/16 05:39:14;;;;;;;5.03;1.85;;;15.30;99.90;;;;;;4990465;28;20050;-79
2022/10/16 05:41:43;;;;;;;4.28;1.90;;;15.30;99.90;;;;;;4978047;28;20046;-79
2022/10/16 05:44:10;;;;;;;6.93;2.30;;;15.30;99.90;;;;;;4981072;28;20056;-79
2022/10/16 05:46:37;;;;;;;6.85;1.80;;;15.30;99.90;;;;;;4987220;28;20042;-78
2022/10/16 05:49:04;;;;;;;3.58;1.58;;;15.30;99.90;;;;;;4971972;28;20053;-79
2022/10/16 05:51:31;;;;;;;3.47;2.00;;;15.30;99.90;;;;;;4996984;28;20069;-78
2022/10/16 05:53:58;;;;;;;4.38;1.80;;;15.30;99.90;;;;;;4974596;28;20056;-79
2022/10/16 05:56:25;;;;;;;5.10;2.10;;;15.30;99.90;;;;;;4989490;28;20049;-79
2022/10/16 05:58:53;;;;;;;7.07;2.00;;;15.30;99.90;;;;;;4969128;28;20070;-79
2022/10/16 06:01:23;;;;;;;4.75;2.25;;;15.30;99.90;;;;;;4981851;28;20050;-79
2022/10/16 06:03:50;;;;;;;5.78;1.95;;;15.30;99.90;;;;;;4989492;28;20034;-79
2022/10/16 06:06:19;;;;;;;5.43;2.20;;;15.30;99.90;;;;;;4991439;28;20050;-79
2022/10/16 06:08:46;;;;;;;4.85;1.90;;;15.30;99.90;;;;;;4995580;28;20422;-79
2022/10/16 06:11:15;;;;;;;4.22;2.10;;;15.30;99.90;;;;;;4987994;28;20042;-79
2022/10/16 06:13:42;;;;;;;4.93;1.90;;;15.30;99.90;;;;;;4983079;28;20518;-79
2022/10/16 06:16:11;;;;;;;6.07;2.03;;;15.30;99.90;;;;;;4985567;28;20049;-79
2022/10/16 06:18:38;;;;;;;6.63;1.95;;;15.30;99.90;;;;;;4988536;28;20050;-79
2022/10/16 06:21:09;;;;;;;5.38;1.60;;;15.30;99.90;;;;;;4988024;28;20046;-79
2022/10/16 06:23:35;;;;;;;7.82;1.77;;;15.30;99.90;;;;;;4992831;28;20060;-79
2022/10/16 06:26:07;;;;;;;9.32;2.08;;;15.40;99.90;;;;;;4981472;28;20042;-79
2022/10/16 06:28:34;;;;;;;8.63;2.05;;;15.30;99.90;;;;;;4999701;23;20050;-80
2022/10/16 06:31:00;;;;;;;4.25;2.03;;;15.20;99.90;;;;;;5023419;28;20022;-82
2022/10/16 06:33:29;;;;;;;3.55;2.10;;;15.20;99.90;;;;;;4999083;28;20049;-85
2022/10/16 06:36:02;;;;;;;5.78;2.00;;;15.30;99.90;;;;;;5017808;28;20042;-87
2022/10/16 06:38:29;;;;;;;3.58;1.80;;;15.30;99.90;;;;;;5007813;28;20078;-81
2022/10/16 06:40:56;;;;;;;5.57;2.17;;;15.30;99.90;;;;;;5007533;28;20069;-79
2022/10/16 06:43:23;;;;;;;4.78;2.20;;;15.30;99.90;;;;;;5009786;28;20059;-80
2022/10/16 06:45:52;;;;;;;4.28;2.03;;;15.50;99.90;;;;;;5008163;28;20100;-81
2022/10/16 06:48:19;;;;;;;6.05;2.35;;;15.30;99.90;;;;;;5009075;28;20056;-81
2022/10/16 06:50:56;;;;;;;5.05;2.20;;;15.30;99.90;;;;;;5004954;28;20046;-80
2022/10/16 06:53:23;;;;;;;6.88;2.65;;;15.40;99.90;;;;;;5001586;28;20045;-81
2022/10/16 06:55:50;;;;;;;4.32;2.15;;;15.40;99.90;;;;;;5006739;28;20049;-80
2022/10/16 06:58:17;;;;;;;4.88;2.05;;;15.40;99.90;;;;;;5007886;28;20096;-80
2022/10/16 07:00:44;;;;;;;8.25;2.55;;;15.40;99.90;;;;;;5006864;28;20038;-80
2022/10/16 07:03:11;;;;;;;4.32;2.40;;;15.40;99.90;;;;;;5007824;28;20048;-80
2022/10/16 07:05:39;;;;;;;5.03;2.22;;;15.40;99.90;;;;;;5008464;28;20037;-80
2022/10/16 07:08:07;;;;;;;6.38;2.13;;;15.40;99.90;;;;;;5008836;28;20495;-81
2022/10/16 07:10:34;;;;;;;9.98;2.28;;;15.40;99.90;;;;;;4990131;28;20046;-80
2022/10/16 07:13:01;;;;;;;5.03;2.00;;;15.60;99.90;;;;;;5012520;28;20046;-80
2022/10/16 07:15:28;;;;;;;5.00;1.90;;;15.50;99.90;;;;;;5012005;28;20049;-81
2022/10/16 07:17:55;;;;;;;3.50;2.08;;;15.50;99.90;;;;;;5009595;28;20779;-78
2022/10/16 07:20:22;;;;;;;4.20;2.30;;;15.50;99.90;;;;;;5010660;28;20053;-77
2022/10/16 07:22:49;;;;;;;4.68;2.30;;;15.50;99.90;;;;;;5012241;28;20046;-77
2022/10/16 07:25:17;;;;;;;4.35;2.45;;;15.50;99.90;;;;;;5012344;28;20134;-77
2022/10/16 07:27:44;;;;;;;5.97;2.88;;;15.50;99.90;;;;;;5012326;28;20108;-78
2022/10/16 07:30:11;;;;;;;6.00;3.40;;;15.50;99.90;;;;;;5007434;28;20056;-78
2022/10/16 07:32:38;;;;;;;6.03;2.92;;;15.50;99.90;;;;;;5011840;28;20103;-78
2022/10/16 07:35:06;;;;;;;4.38;2.47;;;15.50;99.90;;;;;;5011975;28;20418;-78
2022/10/16 07:37:33;;;;;;;5.35;3.00;;;15.50;99.90;;;;;;5011374;28;20042;-78
2022/10/16 07:40:00;;;;;;;4.47;2.17;;;15.50;99.90;;;;;;5010352;28;20045;-78
2022/10/16 07:42:28;;;;;;;6.75;2.40;;;15.50;99.90;;;;;;5010547;28;20042;-82
2022/10/16 07:44:55;;;;;;;9.15;2.40;;;15.50;99.90;;;;;;5008619;28;20053;-83
2022/10/16 07:47:22;;;;;;;4.30;2.40;;;15.50;99.90;;;;;;5011529;28;20045;-85
2022/10/16 07:49:49;;;;;;;5.47;2.03;;;15.60;99.90;;;;;;5010492;28;20533;-83
2022/10/16 07:52:15;;;;;;;6.05;2.25;;;15.60;99.90;;;;;;5009142;28;20505;-85
2022/10/16 07:54:42;;;;;;;5.97;2.13;;;15.60;99.90;;;;;;5010042;28;20670;-82
2022/10/16 07:57:09;;;;;;;5.10;1.80;;;15.70;99.90;;;;;;5009534;28;20056;-80
2022/10/16 07:59:37;;;;;;;6.53;2.13;;;15.70;99.90;;;;;;5006533;28;21256;-80
2022/10/16 08:02:04;;;;;;;4.97;2.05;;;15.70;99.90;;;;;;5010699;28;20491;-80
2022/10/16 08:04:31;;;;;;;5.50;2.17;;;15.80;99.90;;;;;;5010230;28;20050;-80
2022/10/16 08:06:58;;;;;;;5.60;2.13;;;15.80;99.90;;;;;;5010715;28;20050;-80
2022/10/16 08:09:25;;;;;;;4.63;1.92;;;15.80;99.90;;;;;;5009001;28;20052;-80
2022/10/16 08:11:52;;;;;;;4.85;1.88;;;15.90;99.90;;;;;;5010478;28;20045;-80
2022/10/16 08:14:19;;;;;;;4.97;2.00;;;15.90;99.90;;;;;;5010650;28;20073;-80
2022/10/16 08:16:47;;;;;;;7.32;1.60;;;16.00;99.90;;;;;;5010018;28;20831;-80
2022/10/16 08:19:15;;;;;;;6.32;1.70;;;16.00;99.90;;;;;;5009878;28;20064;-80
2022/10/16 08:21:42;;;;;;;5.43;1.83;;;16.10;99.90;;;;;;5010469;28;20131;-80
2022/10/16 08:24:09;;;;;;;5.10;1.70;;;16.10;99.90;;;;;;4993819;28;20505;-80
2022/10/16 08:26:36;;;;;;;5.43;2.10;;;16.10;99.90;;;;;;5011202;28;20042;-80
2022/10/16 08:29:03;;;;;;;2.63;1.58;;;16.20;99.90;;;;;;5011422;28;20510;-80
2022/10/16 08:31:30;;;;;;;6.07;1.63;;;16.20;99.90;;;;;;5009675;28;20037;-80
2022/10/16 08:33:58;;;;;;;6.97;1.70;;;16.30;99.90;;;;;;5009269;28;20080;-80
2022/10/16 08:36:25;;;;;;;8.02;1.70;;;16.30;99.90;;;;;;5010029;28;20403;-80
2022/10/16 08:38:54;;;;;;;6.30;1.63;;;16.30;99.90;;;;;;5010846;28;20072;-80
2022/10/16 08:41:40;;;;;;;5.85;1.73;;;16.40;99.90;;;;;;4987988;28;20152;-80
2022/10/16 08:44:25;;;;;;;3.50;1.50;;;16.40;99.90;;;;;;5008529;28;20045;-80
2022/10/16 08:47:00;;;;;;;5.90;1.48;;;16.50;99.90;;;;;;5007555;28;20053;-80
2022/10/16 08:49:28;;;;;;;3.63;1.38;;;16.50;99.90;;;;;;4991384;28;20076;-80
2022/10/16 08:51:57;;;;;;;4.68;1.52;;;16.50;99.90;;;;;;5004698;28;20048;-80
2022/10/16 08:54:29;;;;;;;3.10;1.30;;;16.60;99.90;;;;;;5010603;28;20107;-80
2022/10/16 08:56:57;;;;;;;3.80;1.33;;;16.60;99.90;;;;;;5011023;28;20050;-80
2022/10/16 08:59:24;;;;;;;4.97;1.42;;;16.70;99.90;;;;;;5009171;28;20517;-80
2022/10/16 09:01:52;;;;;;;5.10;1.45;;;16.70;99.90;;;;;;5009904;28;20042;-80
2022/10/16 09:04:43;;;;;;;5.55;1.50;;;16.70;99.90;;;;;;5009360;28;20046;-80
2022/10/16 09:07:16;;;;;;;3.55;1.35;;;16.80;99.90;;;;;;5010542;28;20041;-80
2022/10/16 09:09:54;;;;;;;5.30;1.30;;;16.70;99.90;;;;;;5005807;28;20041;-80
2022/10/16 09:12:26;;;;;;;4.35;1.10;;;16.80;99.90;;;;;;5002576;28;20061;-81
2022/10/16 09:15:02;;;;;;;5.70;1.40;;;16.80;99.90;;;;;;5009932;28;20049;-81
2022/10/16 09:17:41;;;;;;;3.60;1.30;;;16.80;99.90;;;;;;5010345;28;20049;-80
2022/10/16 09:20:40;;;;;;;4.40;1.33;;;16.80;99.90;;;;;;5008261;28;20038;-80
2022/10/16 09:23:15;;;;;;;4.43;1.67;;;16.90;99.90;;;;;;4964711;28;20054;-80
2022/10/16 09:25:44;;;;;;;8.15;1.30;;;16.90;99.90;;;;;;5007442;28;20046;-80
2022/10/16 09:28:11;;;;;;;4.07;1.20;;;16.90;99.90;;;;;;5003548;28;20049;-81
2022/10/16 09:30:39;;;;;;;4.38;1.20;;;16.90;99.90;;;;;;5007623;28;20506;-80
2022/10/16 09:33:07;;;;;;;5.93;1.65;;;16.90;99.90;;;;;;4990100;28;20093;-80
2022/10/16 09:35:38;;;;;;;6.72;1.27;;;16.90;99.90;;;;;;5008959;28;20776;-80
2022/10/16 09:38:06;;;;;;;3.40;1.30;;;16.90;99.90;;;;;;5004575;28;20046;-83
2022/10/16 09:40:35;;;;;;;5.53;1.40;;;17.00;99.90;;;;;;5006752;28;20053;-83
2022/10/16 09:43:08;;;;;;;12.23;1.63;;;17.00;99.90;;;;;;5009801;28;20458;-83
2022/10/16 09:45:35;;;;;;;9.68;1.40;;;16.90;99.90;;;;;;5007257;28;20041;-84
2022/10/16 09:48:11;;;;;;;7.07;1.55;;;17.00;99.90;;;;;;5007296;28;20045;-83
2022/10/16 09:50:40;;;;;;;9.13;1.50;;;17.00;99.90;;;;;;5009098;28;20411;-83
2022/10/16 09:53:12;;;;;;;4.78;1.50;;;17.00;99.90;;;;;;5008842;28;20033;-84
2022/10/16 09:55:49;;;;;;;6.97;1.35;;;17.00;99.90;;;;;;4991288;28;20042;-84
2022/10/16 09:58:17;;;;;;;5.03;1.30;;;17.00;99.90;;;;;;5006734;28;20044;-86
2022/10/16 10:00:50;;;;;;;4.63;1.20;;;17.00;99.90;;;;;;5003072;28;20045;-84
2022/10/16 10:03:31;;;;;;;5.50;1.33;;;17.10;99.90;;;;;;5005076;28;20402;-84
2022/10/16 10:06:00;;;;;;;4.65;0.85;;;17.10;99.90;;;;;;5005913;28;20042;-84
2022/10/16 10:08:26;;;;;;;3.28;1.20;;;17.10;99.90;;;;;;5009490;28;20048;-84
2022/10/16 10:10:54;;;;;;;3.65;1.23;;;17.20;99.90;;;;;;5008831;28;20054;-84
2022/10/16 10:13:23;;;;;;;5.28;1.20;;;17.20;99.90;;;;;;5006591;28;20045;-84
2022/10/16 10:15:51;;;;;;;3.35;1.08;;;17.30;99.90;;;;;;5003837;28;20400;-84
2022/10/16 10:18:19;;;;;;;4.05;1.40;;;17.30;99.90;;;;;;5007528;28;20041;-83
2022/10/16 10:20:46;;;;;;;6.60;1.10;;;17.30;99.90;;;;;;5008618;28;20045;-83
2022/10/16 10:23:23;;;;;;;5.38;1.70;;;17.30;99.90;;;;;;5007305;28;20046;-83
2022/10/16 10:25:54;;;;;;;4.05;1.20;;;17.30;99.90;;;;;;5003423;28;20052;-83
2022/10/16 10:28:30;;;;;;;;;;;17.40;99.90;;;;;;5001641;28;20042;-83
2022/10/16 10:31:02;;;;;;;4.80;1.17;;;17.40;99.90;;;;;;5007783;28;19925;-83
2022/10/16 10:33:35;;;;;;;4.63;1.20;;;17.40;99.90;;;;;;4999416;28;20046;-88
2022/10/16 10:36:10;;;;;;;3.90;1.08;;;17.40;99.90;;;;;;4996825;28;20050;-84
2022/10/16 10:38:45;;;;;;;4.97;1.23;;;17.40;99.90;;;;;;5007768;28;20041;-83
2022/10/16 10:41:24;;;;;;;5.10;1.88;;;17.40;99.90;;;;;;5004160;28;20050;-83
2022/10/16 10:43:58;;;;;;;8.00;1.55;;;17.50;99.90;;;;;;4985508;28;20414;-84
2022/10/16 10:46:32;;;;;;;3.95;0.98;;;17.50;99.90;;;;;;5009504;28;20053;-80
2022/10/16 10:49:11;;;;;;;3.55;1.08;;;17.50;99.90;;;;;;5006494;28;20048;-81
2022/10/16 10:51:44;;;;;;;3.97;1.38;;;17.50;99.90;;;;;;5005978;28;20049;-81
2022/10/16 10:54:17;;;;;;;4.07;1.02;;;17.70;99.90;;;;;;5005224;28;20073;-78
2022/10/16 10:56:48;;;;;;;4.18;1.10;;;17.60;99.90;;;;;;5006762;28;20108;-79
2022/10/16 10:59:29;;;;;;;4.30;1.00;;;17.60;99.90;;;;;;5011766;28;20053;-79
2022/10/16 11:01:59;;;;;;;6.15;1.05;;;17.60;99.90;;;;;;5008645;28;20050;-80
2022/10/16 11:04:48;;;;;;;6.72;0.90;;;17.70;99.90;;;;;;5009942;28;20042;-82
2022/10/16 11:07:18;;;;;;;5.82;1.27;;;17.70;99.90;;;;;;5011791;28;20050;-82
2022/10/16 11:09:48;;;;;;;2.90;1.00;;;17.70;99.90;;;;;;5008041;28;20065;-82
2022/10/16 11:12:19;;;;;;;4.10;1.17;;;17.70;99.90;;;;;;5011357;28;20076;-82
2022/10/16 11:14:50;;;;;;;3.77;1.00;;;17.80;99.90;;;;;;5007758;28;20045;-82
2022/10/16 11:17:24;;;;;;;4.60;1.10;;;17.80;99.90;;;;;;5004411;28;20308;-82
2022/10/16 11:19:54;;;;;;;3.05;0.93;;;17.80;99.90;;;;;;5008987;28;20050;-82
2022/10/16 11:22:24;;;;;;;2.53;0.85;;;17.80;99.90;;;;;;5009758;28;20045;-82
2022/10/16 11:24:59;;;;;;;5.57;1.25;;;17.90;99.90;;;;;;5008432;28;20045;-82
2022/10/16 11:27:34;;;;;;;4.75;1.00;;;17.90;99.90;;;;;;5006263;28;20043;-82
2022/10/16 11:30:04;;;;;;;3.67;1.00;;;17.90;99.90;;;;;;5004340;28;20121;-82
2022/10/16 11:32:35;;;;;;;5.07;0.98;;;17.90;99.90;;;;;;5005954;28;20112;-82
2022/10/16 11:35:06;;;;;;;4.30;0.90;;;17.90;99.90;;;;;;5006649;28;20062;-83
2022/10/16 11:37:33;;;;;;;;;;;17.90;99.90;;;;;;5007995;28;20133;-83
2022/10/16 11:40:06;;;;;;;3.33;0.95;;;17.90;99.90;;;;;;5010751;28;19932;-82
2022/10/16 11:42:38;;;;;;;4.63;0.90;;;18.00;99.90;;;;;;5012179;28;20041;-82
2022/10/16 11:45:13;;;;;;;5.00;0.90;;;18.10;99.90;;;;;;5010212;28;20042;-81
2022/10/16 11:47:43;;;;;;;3.92;0.82;;;17.90;99.90;;;;;;4988057;28;20422;-82
2022/10/16 11:50:25;;;;;;;3.50;0.98;;;17.90;99.90;;;;;;4990164;28;20056;-81
2022/10/16 11:52:56;;;;;;;3.60;0.80;;;17.90;99.90;;;;;;5008515;28;20038;-82
2022/10/16 11:55:31;;;;;;;3.75;1.38;;;17.90;99.90;;;;;;5002552;28;20050;-84
2022/10/16 11:58:02;;;;;;;4.63;1.50;;;17.90;99.90;;;;;;5009777;28;20104;-85
2022/10/16 12:00:32;;;;;;;3.47;1.02;;;17.90;99.90;;;;;;5007072;28;20045;-84
2022/10/16 12:03:04;;;;;;;3.63;1.00;;;17.90;99.90;;;;;;5009862;28;20113;-85
2022/10/16 12:05:36;;;;;;;4.65;1.00;;;17.90;99.90;;;;;;5004801;28;20053;-85
2022/10/16 12:08:10;;;;;;;6.13;1.42;;;18.00;99.90;;;;;;5006094;28;20410;-85
2022/10/16 12:10:40;;;;;;;7.13;1.23;;;17.90;99.90;;;;;;5007695;28;20586;-83
2022/10/16 12:13:21;;;;;;;4.25;1.00;;;17.90;99.90;;;;;;5000571;28;20053;-84
2022/10/16 12:15:50;;;;;;;5.05;0.95;;;17.90;99.90;;;;;;4980421;28;20427;-86
2022/10/16 12:18:22;;;;;;;3.85;1.08;;;17.90;99.90;;;;;;5002820;28;20410;-85
2022/10/16 12:20:58;;;;;;;7.07;1.00;;;17.90;99.90;;;;;;4988529;28;20050;-85
2022/10/16 12:23:25;;;;;;;2.67;1.00;;;17.90;99.90;;;;;;4988655;28;20112;-84
2022/10/16 12:25:57;;;;;;;6.45;1.38;;;17.90;99.90;;;;;;5007636;28;20053;-85
2022/10/16 12:28:28;;;;;;;4.30;1.00;;;17.90;99.90;;;;;;5021393;23;20029;-82
2022/10/16 12:30:55;;;;;;;;;;;17.90;99.90;;;;;;4993556;28;20061;-75
2022/10/16 12:33:24;;;;;;;5.20;1.02;;;17.90;99.90;;;;;;4995161;28;19926;-78
2022/10/16 12:35:51;;;;;;;4.65;1.05;;;17.90;99.90;;;;;;4998752;28;20426;-78
2022/10/16 12:38:20;;;;;;;5.53;0.90;;;17.90;99.90;;;;;;4996983;28;20049;-75
2022/10/16 12:40:48;;;;;;;5.85;1.40;;;17.90;99.90;;;;;;4988179;28;20503;-75
2022/10/16 12:43:35;;;;;;;9.88;1.73;;;17.90;99.90;;;;;;4998432;28;20537;-75
2022/10/16 12:46:05;;;;;;;7.07;1.10;;;17.90;99.90;;;;;;4983396;28;20470;-76
2022/10/16 12:48:32;;;;;;;4.75;1.05;;;17.90;99.90;;;;;;4988746;28;20442;-75
2022/10/16 12:51:11;;;;;;;3.75;0.88;;;17.90;99.90;;;;;;4988261;28;20046;-75
2022/10/16 12:53:38;;;;;;;5.13;1.35;;;17.90;99.90;;;;;;4984618;28;20039;-75
2022/10/16 12:56:12;;;;;;;7.22;1.15;;;17.90;99.90;;;;;;4988778;28;20056;-75
2022/10/16 12:59:01;;;;;;;4.63;1.17;;;17.90;99.90;;;;;;4974321;28;20042;-76